Time;durP1;ratioP1;P1;durP2;ratioP2;P2;SDS_P1;SDS_P2;PMS_P1;PMS_P2;Temp;Humidity;BMP_temperature;BMP_pressure;BME280_temperature;BME280_humidity;BME280_pressure;Samples;Min_cycle;Max_cycle;Signal;HPM_P1;HPM_P2
2021/07/14 00:00:59;;;;;;;11.40;3.10;;;16.90;99.90;;;;;;5046967;28;20414;-84
2021/07/14 00:03:26;;;;;;;4.90;3.63;;;16.80;99.90;;;;;;5063632;28;20167;-84
2021/07/14 00:05:53;;;;;;;2.80;2.60;;;16.80;99.90;;;;;;5063835;28;20401;-84
2021/07/14 00:08:19;;;;;;;3.40;3.10;;;16.80;99.90;;;;;;5064825;28;20427;-84
2021/07/14 00:10:45;;;;;;;3.50;3.17;;;16.80;99.90;;;;;;5063154;28;20787;-84
2021/07/14 00:13:28;;;;;;;3.83;2.97;;;16.70;99.90;;;;;;5064663;28;20163;-84
2021/07/14 00:23:51;;;;;;;7.00;3.20;;;16.70;99.90;;;;;;5065386;28;20389;-84
2021/07/14 00:26:17;;;;;;;3.90;2.83;;;16.80;99.90;;;;;;5059958;28;20398;-83
2021/07/14 00:28:48;;;;;;;5.20;4.53;;;16.70;99.90;;;;;;5061423;28;20168;-84
2021/07/14 00:31:15;;;;;;;7.90;4.27;;;16.80;99.90;;;;;;5066827;28;20222;-85
2021/07/14 00:33:43;;;;;;;5.00;4.33;;;17.00;99.90;;;;;;5058619;28;20390;-85
2021/07/14 00:36:10;;;;;;;4.80;3.37;;;17.00;99.90;;;;;;5058857;28;20386;-85
2021/07/14 00:38:36;;;;;;;3.60;3.30;;;16.90;99.90;;;;;;5057700;28;20446;-84
2021/07/14 00:41:03;;;;;;;4.90;4.33;;;17.00;99.90;;;;;;5058869;28;20399;-85
2021/07/14 00:43:29;;;;;;;4.40;2.83;;;17.20;99.90;;;;;;5058181;28;20391;-85
2021/07/14 00:45:55;;;;;;;3.67;3.37;;;17.20;99.90;;;;;;5057783;28;20409;-85
2021/07/14 00:48:26;;;;;;;4.03;3.47;;;16.90;99.90;;;;;;5058500;28;20168;-85
2021/07/14 00:50:53;;;;;;;3.97;2.57;;;16.90;99.90;;;;;;5057800;28;20590;-85
2021/07/14 00:53:19;;;;;;;4.13;3.00;;;16.60;99.90;;;;;;5057998;28;20391;-85
2021/07/14 00:55:45;;;;;;;3.00;2.80;;;16.60;99.90;;;;;;5057524;28;20387;-85
2021/07/14 00:58:11;;;;;;;3.00;2.80;;;16.70;99.90;;;;;;5056991;28;20402;-84
2021/07/14 01:00:37;;;;;;;6.83;4.00;;;16.80;99.90;;;;;;5057770;28;20188;-84
2021/07/14 01:03:03;;;;;;;5.17;3.70;;;16.80;99.90;;;;;;5057771;28;20403;-85
2021/07/14 01:05:34;;;;;;;7.60;3.93;;;16.80;99.90;;;;;;5057288;28;20505;-85
2021/07/14 01:08:15;;;;;;;7.83;3.80;;;16.90;99.90;;;;;;5057075;28;20532;-84
2021/07/14 01:10:56;;;;;;;7.80;4.13;;;16.90;99.90;;;;;;5057593;28;20401;-85
2021/07/14 01:13:43;;;;;;;4.70;3.30;;;16.80;99.90;;;;;;5057843;28;20399;-85
2021/07/14 01:16:15;;;;;;;5.70;3.43;;;17.10;99.90;;;;;;5060471;28;20395;-85
2021/07/14 01:19:10;;;;;;;5.87;3.37;;;17.20;99.90;;;;;;5060945;28;20414;-85
2021/07/14 01:21:42;;;;;;;4.47;4.07;;;17.10;99.90;;;;;;5059995;28;20399;-84
2021/07/14 01:24:12;;;;;;;4.03;3.33;;;16.90;99.90;;;;;;5060203;28;20389;-85
2021/07/14 01:27:01;;;;;;;5.57;3.30;;;16.70;99.90;;;;;;5060686;28;20425;-85
2021/07/14 01:29:29;;;;;;;3.50;2.90;;;16.70;99.90;;;;;;5058962;28;20394;-85
2021/07/14 01:31:56;;;;;;;3.57;2.73;;;16.30;99.90;;;;;;5060884;28;20483;-83
2021/07/14 01:34:24;;;;;;;3.30;3.00;;;16.50;99.90;;;;;;5060870;28;20422;-85
2021/07/14 01:36:53;;;;;;;4.67;3.33;;;16.50;99.90;;;;;;5064481;28;20432;-84
2021/07/14 01:39:20;;;;;;;5.40;3.67;;;16.40;99.90;;;;;;5065238;28;20466;-85
2021/07/14 01:41:50;;;;;;;4.60;3.07;;;16.60;99.90;;;;;;5065316;28;20382;-85
2021/07/14 01:44:18;;;;;;;5.93;4.47;;;16.60;99.90;;;;;;5063477;28;20520;-85
2021/07/14 01:46:46;;;;;;;5.57;3.57;;;16.50;99.90;;;;;;5060387;28;20516;-85
2021/07/14 01:49:17;;;;;;;6.33;3.13;;;16.40;99.90;;;;;;5060259;28;20458;-85
2021/07/14 01:51:47;;;;;;;3.33;3.03;;;16.30;99.90;;;;;;5060728;28;20395;-84
2021/07/14 01:54:15;;;;;;;8.10;4.97;;;16.30;99.90;;;;;;5060587;28;20406;-85
2021/07/14 01:56:42;;;;;;;3.70;3.27;;;16.40;99.90;;;;;;5060953;28;20391;-85
2021/07/14 01:59:10;;;;;;;4.40;3.20;;;16.40;99.90;;;;;;5060472;28;20394;-85
2021/07/14 02:01:41;;;;;;;3.87;3.57;;;16.50;99.90;;;;;;5060411;28;20490;-85
2021/07/14 02:06:50;;;;;;;3.67;3.37;;;16.50;99.90;;;;;;5060426;28;20387;-85
2021/07/14 02:09:17;;;;;;;6.67;3.90;;;16.40;99.90;;;;;;5060260;28;20433;-85
2021/07/14 02:11:46;;;;;;;4.03;3.10;;;16.20;99.90;;;;;;5060466;28;20455;-85
2021/07/14 02:14:16;;;;;;;4.00;3.10;;;16.20;99.90;;;;;;5060234;28;20596;-85
2021/07/14 02:16:45;;;;;;;3.90;3.50;;;16.30;99.90;;;;;;5059898;28;20391;-85
2021/07/14 02:19:15;;;;;;;4.10;3.70;;;16.10;99.90;;;;;;5060313;28;20387;-84
2021/07/14 02:21:41;;;;;;;11.40;3.07;;;16.10;99.90;;;;;;5059956;28;20478;-85
2021/07/14 02:24:11;;;;;;;8.50;3.90;;;16.30;99.90;;;;;;5060148;28;20933;-85
2021/07/14 02:26:38;;;;;;;3.70;3.40;;;16.40;99.90;;;;;;5060005;28;20179;-85
2021/07/14 02:29:05;;;;;;;10.20;4.70;;;16.40;99.90;;;;;;5060431;28;20929;-85
2021/07/14 02:31:31;;;;;;;4.30;3.90;;;16.30;99.90;;;;;;5060131;28;20391;-85
2021/07/14 02:33:57;;;;;;;5.53;4.30;;;16.40;99.90;;;;;;5061219;28;20744;-85
2021/07/14 02:36:24;;;;;;;3.80;3.43;;;16.50;99.90;;;;;;5060274;28;20387;-85
2021/07/14 02:38:57;;;;;;;9.63;4.30;;;16.40;99.90;;;;;;5060107;28;20462;-85
2021/07/14 02:41:29;;;;;;;4.90;3.93;;;16.50;99.90;;;;;;5059733;28;20763;-85
2021/07/14 02:43:58;;;;;;;6.30;3.87;;;16.40;99.90;;;;;;5060214;28;20784;-85
2021/07/14 02:46:27;;;;;;;4.97;4.37;;;16.50;99.90;;;;;;5060313;28;20383;-85
2021/07/14 02:48:56;;;;;;;6.07;4.03;;;16.40;99.90;;;;;;5060893;28;20386;-85
2021/07/14 02:51:25;;;;;;;4.70;4.30;;;16.30;99.90;;;;;;5060921;28;20405;-85
2021/07/14 02:53:55;;;;;;;5.17;4.10;;;16.50;99.90;;;;;;5058892;28;20387;-85
2021/07/14 02:56:22;;;;;;;10.77;5.07;;;16.50;99.90;;;;;;5060394;28;20456;-85
2021/07/14 02:58:52;;;;;;;5.03;4.63;;;16.60;99.90;;;;;;5062021;28;20387;-85
2021/07/14 03:01:19;;;;;;;5.67;4.80;;;16.80;99.90;;;;;;5060455;28;20491;-85
2021/07/14 03:03:51;;;;;;;4.30;3.90;;;16.80;99.90;;;;;;5060238;28;20885;-85
2021/07/14 03:06:19;;;;;;;5.20;4.70;;;16.90;99.90;;;;;;5069124;28;20406;-84
2021/07/14 03:08:48;;;;;;;4.77;4.37;;;16.80;99.90;;;;;;5074352;28;20455;-82
2021/07/14 03:11:15;;;;;;;4.77;4.23;;;17.00;99.90;;;;;;5075365;28;20426;-85
2021/07/14 03:13:43;;;;;;;6.17;3.97;;;16.80;99.90;;;;;;5060037;28;20395;-85
2021/07/14 03:16:09;;;;;;;7.57;4.77;;;16.70;99.90;;;;;;5060072;28;20710;-85
2021/07/14 03:18:36;;;;;;;8.23;3.97;;;16.60;99.90;;;;;;5059562;28;20497;-85
2021/07/14 03:21:03;;;;;;;5.70;3.87;;;16.40;99.90;;;;;;5059223;28;20442;-85
2021/07/14 03:23:30;;;;;;;4.30;3.90;;;16.10;99.90;;;;;;5059358;28;20414;-85
2021/07/14 03:25:58;;;;;;;6.83;4.17;;;16.10;99.90;;;;;;5057988;28;20443;-85
2021/07/14 03:28:30;;;;;;;9.47;3.90;;;16.30;99.90;;;;;;5058974;28;20397;-84
2021/07/14 03:31:00;;;;;;;5.03;4.53;;;16.10;99.90;;;;;;5058897;28;20390;-85
2021/07/14 03:33:28;;;;;;;9.00;4.17;;;16.20;99.90;;;;;;5059147;28;20400;-85
2021/07/14 03:35:57;;;;;;;8.50;5.00;;;16.10;99.90;;;;;;5058803;28;20407;-84
2021/07/14 03:38:23;;;;;;;10.77;4.63;;;16.10;99.90;;;;;;5060064;28;20454;-85
2021/07/14 03:40:50;;;;;;;4.87;4.37;;;16.40;99.90;;;;;;5066211;28;20438;-83
2021/07/14 03:43:17;;;;;;;4.80;4.40;;;16.20;99.90;;;;;;5064130;28;20164;-85
2021/07/14 03:45:43;;;;;;;5.00;4.50;;;16.10;99.90;;;;;;5065358;28;20441;-84
2021/07/14 03:48:16;;;;;;;9.73;5.00;;;16.10;99.90;;;;;;5065440;28;20394;-84
2021/07/14 03:50:46;;;;;;;7.23;4.33;;;16.00;99.90;;;;;;5058463;28;20444;-84
2021/07/14 03:53:15;;;;;;;22.13;4.60;;;16.10;99.90;;;;;;5058456;28;20438;-85
2021/07/14 03:55:41;;;;;;;5.87;4.87;;;16.20;99.90;;;;;;5058873;28;20485;-84
2021/07/14 03:58:07;;;;;;;7.87;5.07;;;16.20;99.90;;;;;;5058677;28;20803;-83
2021/07/14 04:00:33;;;;;;;4.87;4.37;;;16.30;99.90;;;;;;5057924;28;20270;-84
2021/07/14 04:03:00;;;;;;;6.93;4.87;;;16.30;99.90;;;;;;5058472;28;20160;-83
2021/07/14 04:05:26;;;;;;;4.73;4.40;;;16.20;99.90;;;;;;5059032;28;20399;-84
2021/07/14 04:07:53;;;;;;;5.50;5.00;;;16.10;99.90;;;;;;5058569;28;20427;-84
2021/07/14 04:10:19;;;;;;;9.43;5.20;;;16.20;99.90;;;;;;5063751;28;20394;-84
2021/07/14 04:12:47;;;;;;;15.20;4.90;;;16.20;99.90;;;;;;5060162;28;20732;-84
2021/07/14 04:15:13;;;;;;;5.73;4.43;;;16.10;99.90;;;;;;5058213;28;20176;-83
2021/07/14 04:17:38;;;;;;;4.97;4.47;;;16.30;99.90;;;;;;5057946;28;20823;-83
2021/07/14 04:20:06;;;;;;;5.10;4.60;;;16.40;99.90;;;;;;5058009;28;20192;-84
2021/07/14 04:22:32;;;;;;;6.60;4.90;;;16.40;99.90;;;;;;5058211;28;20191;-84
2021/07/14 04:24:59;;;;;;;5.37;4.87;;;16.20;99.90;;;;;;5057498;28;20391;-84
2021/07/14 04:27:25;;;;;;;8.13;5.47;;;16.00;99.90;;;;;;5056060;28;20453;-84
2021/07/14 04:29:52;;;;;;;4.50;4.10;;;16.20;99.90;;;;;;5057233;28;20485;-84
2021/07/14 04:32:17;;;;;;;4.40;3.97;;;16.10;99.90;;;;;;5057334;28;20743;-84
2021/07/14 04:34:43;;;;;;;9.67;5.70;;;16.20;99.90;;;;;;5057425;28;20399;-84
2021/07/14 04:37:09;;;;;;;6.73;6.10;;;16.40;99.90;;;;;;5057300;28;20164;-84
2021/07/14 04:39:35;;;;;;;5.43;4.97;;;16.20;99.90;;;;;;5055379;28;20590;-84
2021/07/14 04:42:01;;;;;;;7.70;6.10;;;16.30;99.90;;;;;;5057058;28;20261;-84
2021/07/14 04:47:08;;;;;;;5.63;5.20;;;15.90;99.90;;;;;;5057638;28;20394;-85
2021/07/14 04:49:34;;;;;;;5.67;5.27;;;16.00;99.90;;;;;;5059097;28;20402;-84
2021/07/14 04:52:00;;;;;;;6.30;4.67;;;15.90;99.90;;;;;;5061135;28;20237;-85
2021/07/14 04:54:26;;;;;;;4.40;4.10;;;16.20;99.90;;;;;;5060317;28;20200;-84
2021/07/14 04:56:52;;;;;;;6.67;6.07;;;16.10;99.90;;;;;;5061292;28;20773;-84
2021/07/14 04:59:17;;;;;;;6.50;5.50;;;16.10;99.90;;;;;;5061492;28;20227;-84
2021/07/14 05:01:43;;;;;;;5.40;5.00;;;16.30;99.90;;;;;;5061746;28;20167;-84
2021/07/14 05:04:09;;;;;;;5.03;4.63;;;16.30;99.90;;;;;;5060560;28;20168;-85
2021/07/14 05:06:35;;;;;;;9.10;4.77;;;16.30;99.90;;;;;;5061777;28;20251;-84
2021/07/14 05:09:01;;;;;;;5.20;4.70;;;16.50;99.90;;;;;;5061701;28;20472;-85
2021/07/14 05:11:27;;;;;;;5.77;5.23;;;16.30;99.90;;;;;;5062184;28;20178;-84
2021/07/14 05:13:53;;;;;;;6.07;5.40;;;16.20;99.90;;;;;;5062946;28;20190;-84
2021/07/14 05:16:19;;;;;;;8.00;5.63;;;16.30;99.90;;;;;;5061727;28;20168;-85
2021/07/14 05:18:45;;;;;;;6.80;6.20;;;16.50;99.90;;;;;;5061827;28;20427;-84
2021/07/14 05:21:17;;;;;;;15.77;5.33;;;16.50;99.90;;;;;;5062800;28;20227;-84
2021/07/14 05:23:49;;;;;;;5.13;4.73;;;16.60;99.90;;;;;;5062123;28;20381;-84
2021/07/14 05:26:16;;;;;;;9.87;6.07;;;16.50;99.90;;;;;;5062921;28;20395;-85
2021/07/14 05:28:42;;;;;;;6.73;5.70;;;16.50;99.90;;;;;;5067875;28;20403;-84
2021/07/14 05:31:08;;;;;;;5.30;4.80;;;16.50;99.90;;;;;;5061418;28;20410;-85
2021/07/14 05:33:42;;;;;;;6.07;5.17;;;16.60;99.90;;;;;;5061972;28;20168;-83
2021/07/14 05:36:09;;;;;;;10.83;6.07;;;16.50;99.90;;;;;;5060463;28;20198;-83
2021/07/14 05:38:35;;;;;;;6.57;5.90;;;16.30;99.90;;;;;;5061421;28;20583;-84
2021/07/14 05:41:01;;;;;;;7.87;6.27;;;16.30;99.90;;;;;;5060273;28;20923;-84
2021/07/14 05:43:27;;;;;;;5.90;5.33;;;16.60;99.90;;;;;;5059281;28;20836;-85
2021/07/14 05:45:53;;;;;;;7.73;5.30;;;16.80;99.90;;;;;;5042212;28;20820;-83
2021/07/14 05:48:19;;;;;;;6.50;5.90;;;16.60;99.90;;;;;;5058102;28;20541;-84
2021/07/14 05:50:45;;;;;;;6.20;5.43;;;16.80;99.90;;;;;;5057260;28;20243;-84
2021/07/14 05:53:11;;;;;;;6.63;5.70;;;16.80;99.90;;;;;;5057692;28;20619;-84
2021/07/14 05:55:39;;;;;;;5.60;5.13;;;16.90;99.90;;;;;;5041141;28;20464;-85
2021/07/14 05:58:05;;;;;;;7.23;5.13;;;17.10;99.90;;;;;;5057116;28;20549;-85
2021/07/14 06:00:31;;;;;;;6.07;5.27;;;17.10;99.90;;;;;;5056114;28;20499;-84
2021/07/14 06:02:57;;;;;;;6.07;5.60;;;17.30;99.90;;;;;;5056787;28;20426;-84
2021/07/14 06:05:23;;;;;;;5.53;5.03;;;17.40;99.90;;;;;;5057241;28;20540;-84
2021/07/14 06:07:50;;;;;;;8.40;6.53;;;17.40;99.90;;;;;;5055950;28;20504;-84
2021/07/14 06:10:16;;;;;;;5.07;4.60;;;17.50;99.90;;;;;;5051080;28;20431;-84
2021/07/14 06:12:42;;;;;;;10.60;5.13;;;17.50;99.90;;;;;;5049873;28;20414;-84
2021/07/14 06:15:08;;;;;;;7.73;5.20;;;17.40;99.90;;;;;;5058174;28;20656;-85
2021/07/14 06:17:35;;;;;;;9.10;4.97;;;17.40;99.90;;;;;;5059209;28;20175;-85
2021/07/14 06:20:00;;;;;;;9.90;5.10;;;17.10;99.90;;;;;;5059745;28;20552;-84
2021/07/14 06:22:27;;;;;;;4.30;3.90;;;17.00;99.90;;;;;;5059771;28;20458;-85
2021/07/14 06:24:54;;;;;;;4.23;3.93;;;16.80;99.90;;;;;;5068654;28;20175;-82
2021/07/14 06:27:20;;;;;;;6.87;4.97;;;17.00;99.90;;;;;;5065187;28;20426;-83
2021/07/14 06:29:46;;;;;;;4.70;3.73;;;17.10;99.90;;;;;;5058557;28;20383;-83
2021/07/14 06:32:11;;;;;;;4.50;4.13;;;16.70;99.90;;;;;;5059940;28;20410;-84
2021/07/14 06:34:39;;;;;;;5.07;3.60;;;16.80;99.90;;;;;;5058292;28;20249;-84
2021/07/14 06:37:05;;;;;;;3.50;3.20;;;16.80;99.90;;;;;;5059134;28;20160;-85
2021/07/14 06:39:31;;;;;;;3.20;2.90;;;17.00;99.90;;;;;;5058200;28;20473;-85
2021/07/14 06:41:57;;;;;;;3.00;2.77;;;17.10;99.90;;;;;;5059460;28;20167;-85
2021/07/14 06:44:23;;;;;;;3.17;2.97;;;17.10;99.90;;;;;;5057788;28;20160;-85
2021/07/14 06:46:49;;;;;;;3.13;2.90;;;16.90;99.90;;;;;;5060676;28;20391;-84
2021/07/14 06:49:15;;;;;;;3.00;2.70;;;17.00;99.90;;;;;;5073449;28;20829;-85
2021/07/14 06:51:40;;;;;;;3.13;2.93;;;17.20;99.90;;;;;;5078893;28;20473;-84
2021/07/14 06:54:06;;;;;;;3.00;2.80;;;17.20;99.90;;;;;;5078983;28;20166;-86
2021/07/14 06:56:32;;;;;;;3.30;3.10;;;17.20;99.90;;;;;;5063488;28;20186;-85
2021/07/14 06:58:58;;;;;;;3.93;3.53;;;17.30;99.90;;;;;;5057822;28;20271;-84
2021/07/14 07:01:24;;;;;;;2.87;2.67;;;17.40;99.90;;;;;;5058944;28;20195;-85
2021/07/14 07:03:49;;;;;;;2.40;2.20;;;17.50;99.90;;;;;;5060593;28;20163;-85
2021/07/14 07:06:15;;;;;;;2.93;2.73;;;17.60;99.90;;;;;;5062641;28;20164;-86
2021/07/14 07:08:41;;;;;;;3.03;2.83;;;17.60;99.90;;;;;;5060607;28;20188;-86
2021/07/14 07:11:07;;;;;;;3.17;2.93;;;17.70;99.90;;;;;;5060825;28;20180;-85
2021/07/14 07:13:33;;;;;;;3.03;2.80;;;17.70;99.90;;;;;;5059029;28;20180;-85
2021/07/14 07:16:01;;;;;;;3.53;3.23;;;17.60;99.90;;;;;;5057376;28;20164;-86
2021/07/14 07:18:27;;;;;;;2.93;2.70;;;17.30;99.90;;;;;;5057199;28;20171;-86
2021/07/14 07:20:54;;;;;;;3.00;2.67;;;17.40;99.90;;;;;;5057807;28;20442;-85
2021/07/14 07:23:20;;;;;;;2.70;2.50;;;17.50;99.90;;;;;;5057650;28;20609;-85
2021/07/14 07:25:46;;;;;;;2.67;2.47;;;17.50;99.90;;;;;;5055867;28;20417;-84
2021/07/14 07:28:15;;;;;;;3.20;3.00;;;17.60;99.90;;;;;;5056997;28;20437;-84
2021/07/14 07:30:41;;;;;;;2.63;2.43;;;17.60;99.90;;;;;;5057389;28;20152;-86
2021/07/14 07:33:07;;;;;;;3.00;2.77;;;17.60;99.90;;;;;;5057024;28;20423;-85
2021/07/14 07:35:33;;;;;;;3.03;2.80;;;17.40;99.90;;;;;;5057843;28;20399;-85
2021/07/14 07:38:00;;;;;;;2.90;2.70;;;16.90;99.90;;;;;;5058137;28;20446;-85
2021/07/14 07:40:27;;;;;;;3.30;2.80;;;16.90;99.90;;;;;;5058465;28;20457;-85
2021/07/14 07:42:54;;;;;;;3.97;3.10;;;16.80;99.90;;;;;;5057305;28;20423;-85
2021/07/14 07:45:20;;;;;;;3.07;2.87;;;16.70;99.90;;;;;;5059366;28;20395;-87
2021/07/14 07:47:46;;;;;;;3.80;3.50;;;16.90;99.90;;;;;;5059212;28;20390;-85
2021/07/14 07:50:13;;;;;;;5.87;3.50;;;16.90;99.90;;;;;;5066602;28;20405;-84
2021/07/14 07:52:39;;;;;;;3.93;3.50;;;16.80;99.90;;;;;;5069122;28;20406;-83
2021/07/14 07:55:09;;;;;;;3.30;3.00;;;16.70;99.90;;;;;;5071237;28;20373;-83
2021/07/14 07:57:37;;;;;;;3.90;3.50;;;16.80;99.90;;;;;;5071431;28;20391;-83
2021/07/14 08:00:09;;;;;;;6.27;3.10;;;17.10;99.90;;;;;;5065820;28;20888;-85
2021/07/14 08:02:36;;;;;;;4.03;3.73;;;17.30;99.90;;;;;;5061264;28;20399;-85
2021/07/14 08:05:03;;;;;;;10.53;5.03;;;17.40;99.90;;;;;;5058475;28;20399;-85
2021/07/14 08:07:32;;;;;;;3.80;3.60;;;17.60;99.90;;;;;;5073055;28;20937;-86
2021/07/14 08:09:57;;;;;;;4.13;3.13;;;17.60;99.90;;;;;;5058232;28;20489;-86
2021/07/14 08:12:23;;;;;;;3.73;3.43;;;17.60;99.90;;;;;;5056584;28;20160;-85
2021/07/14 08:14:49;;;;;;;4.90;3.50;;;17.60;99.90;;;;;;5057848;28;20605;-85
2021/07/14 08:17:15;;;;;;;4.53;3.87;;;17.40;99.90;;;;;;5058090;28;20199;-85
2021/07/14 08:19:41;;;;;;;3.80;3.40;;;17.40;99.90;;;;;;5056731;28;20454;-85
2021/07/14 08:22:07;;;;;;;4.30;3.90;;;17.00;99.90;;;;;;5056416;28;20183;-85
2021/07/14 08:24:32;;;;;;;4.80;4.40;;;17.10;99.90;;;;;;5059132;28;20211;-85
2021/07/14 08:26:58;;;;;;;10.13;4.77;;;17.00;99.90;;;;;;5060403;28;20183;-85
2021/07/14 08:29:24;;;;;;;3.57;3.27;;;17.30;99.90;;;;;;5061287;28;20585;-85
2021/07/14 08:31:52;;;;;;;5.77;3.80;;;17.00;99.90;;;;;;5061403;28;20706;-85
2021/07/14 08:34:18;;;;;;;5.47;4.97;;;17.10;99.90;;;;;;5061099;28;20455;-86
2021/07/14 08:36:44;;;;;;;4.47;4.17;;;17.00;99.90;;;;;;5061586;28;20490;-85
2021/07/14 08:39:11;;;;;;;6.17;5.13;;;17.20;99.90;;;;;;5060069;28;20489;-85
2021/07/14 08:41:42;;;;;;;5.10;4.70;;;17.00;99.90;;;;;;5058637;28;20225;-86
2021/07/14 08:44:08;;;;;;;5.50;5.00;;;17.10;99.90;;;;;;5060202;28;20398;-86
2021/07/14 08:46:37;;;;;;;6.27;4.87;;;17.10;99.90;;;;;;5060065;28;20414;-86
2021/07/14 08:49:05;;;;;;;6.40;4.77;;;16.90;99.90;;;;;;5061064;28;20409;-86
2021/07/14 08:51:34;;;;;;;7.00;5.03;;;17.10;99.90;;;;;;5060559;28;20789;-85
2021/07/14 08:54:00;;;;;;;6.07;5.47;;;17.20;99.90;;;;;;5060915;28;20391;-85
2021/07/14 08:56:26;;;;;;;6.10;5.50;;;17.40;99.90;;;;;;5060468;28;20393;-85
2021/07/14 08:58:52;;;;;;;5.00;4.60;;;17.30;99.90;;;;;;5061292;28;20190;-85
2021/07/14 09:01:18;;;;;;;6.50;5.13;;;17.20;99.90;;;;;;5059768;28;20521;-86
2021/07/14 09:03:44;;;;;;;6.40;5.87;;;17.30;99.90;;;;;;5059728;28;20441;-85
2021/07/14 09:06:10;;;;;;;4.90;4.40;;;17.60;99.90;;;;;;5061182;28;20191;-85
2021/07/14 09:08:37;;;;;;;6.27;5.67;;;17.80;99.90;;;;;;5060329;28;20275;-85
2021/07/14 09:11:05;;;;;;;7.43;5.60;;;17.30;99.90;;;;;;5060537;28;20245;-86
2021/07/14 09:13:36;;;;;;;5.10;4.50;;;17.50;99.90;;;;;;5061090;28;20404;-85
2021/07/14 09:16:02;;;;;;;5.63;5.03;;;17.40;99.90;;;;;;5059129;28;20390;-85
2021/07/14 09:18:29;;;;;;;6.60;5.17;;;17.20;99.90;;;;;;5059213;28;20402;-86
2021/07/14 09:20:55;;;;;;;8.00;5.17;;;17.20;99.90;;;;;;5059143;28;20985;-86
2021/07/14 09:23:25;;;;;;;11.87;5.40;;;17.10;99.90;;;;;;5060050;28;20410;-86
2021/07/14 09:25:56;;;;;;;9.43;6.50;;;17.30;99.90;;;;;;5060250;28;20401;-85
2021/07/14 09:28:29;;;;;;;5.90;5.37;;;17.30;99.90;;;;;;5060483;28;20441;-86
2021/07/14 09:31:03;;;;;;;8.63;5.10;;;17.20;99.90;;;;;;5078170;28;20398;-85
2021/07/14 09:33:30;;;;;;;5.70;5.13;;;17.50;99.90;;;;;;5081150;28;20413;-85
2021/07/14 09:35:58;;;;;;;6.07;5.57;;;17.80;99.90;;;;;;5079841;28;20428;-86
2021/07/14 09:38:28;;;;;;;5.70;5.30;;;17.80;99.90;;;;;;5082028;28;20536;-86
2021/07/14 09:40:57;;;;;;;5.80;4.87;;;17.80;99.90;;;;;;5082414;28;20445;-86
2021/07/14 09:43:27;;;;;;;5.90;5.13;;;17.60;99.90;;;;;;5083710;28;20394;-85
2021/07/14 09:45:56;;;;;;;7.57;5.73;;;17.90;99.90;;;;;;5079766;28;20807;-85
2021/07/14 09:48:31;;;;;;;6.10;5.50;;;18.00;99.90;;;;;;5082449;28;20385;-87
2021/07/14 09:51:09;;;;;;;4.83;4.33;;;18.30;99.90;;;;;;5086390;28;20401;-85
2021/07/14 09:53:37;;;;;;;4.70;4.30;;;18.40;99.90;;;;;;5089827;28;20386;-84
2021/07/14 09:56:12;;;;;;;4.73;4.33;;;18.50;99.90;;;;;;5072706;28;20439;-84
2021/07/14 09:58:38;;;;;;;6.63;4.30;;;18.50;99.90;;;;;;5053567;28;20408;-86
2021/07/14 10:01:05;;;;;;;4.90;4.10;;;18.60;99.90;;;;;;5080290;28;20958;-85
2021/07/14 10:03:34;;;;;;;4.60;4.13;;;17.80;99.90;;;;;;5062623;28;20172;-86
2021/07/14 10:06:05;;;;;;;5.23;4.60;;;17.70;99.90;;;;;;5061538;28;20486;-85
2021/07/14 10:08:33;;;;;;;5.10;4.47;;;17.60;99.90;;;;;;5042573;28;20429;-85
2021/07/14 10:11:11;;;;;;;6.37;5.00;;;17.60;99.90;;;;;;5058997;28;20753;-83
2021/07/14 10:13:37;;;;;;;5.00;4.60;;;17.40;99.90;;;;;;5058814;28;20422;-84
2021/07/14 10:16:05;;;;;;;4.70;4.30;;;17.60;99.90;;;;;;5060916;28;20498;-83
2021/07/14 10:18:32;;;;;;;3.97;3.67;;;17.60;99.90;;;;;;5060322;28;20397;-85
2021/07/14 10:21:02;;;;;;;5.13;4.63;;;17.90;99.90;;;;;;5060769;28;20446;-84
2021/07/14 10:23:30;;;;;;;7.60;4.60;;;18.30;99.90;;;;;;5060351;28;20477;-83
2021/07/14 10:25:58;;;;;;;5.10;4.53;;;18.00;99.90;;;;;;5043107;28;20552;-84
2021/07/14 10:28:24;;;;;;;5.80;4.33;;;18.30;99.90;;;;;;5065978;28;20394;-85
2021/07/14 10:30:52;;;;;;;4.53;4.13;;;18.20;99.90;;;;;;5059772;28;20398;-85
2021/07/14 10:33:20;;;;;;;4.73;4.33;;;18.60;99.90;;;;;;5058380;28;20477;-86
2021/07/14 10:35:50;;;;;;;5.00;4.60;;;18.60;99.90;;;;;;5059004;28;20431;-85
2021/07/14 10:38:21;;;;;;;4.77;4.30;;;18.80;99.90;;;;;;5060204;28;20537;-86
2021/07/14 10:40:49;;;;;;;4.53;4.13;;;19.00;99.90;;;;;;5078630;28;20452;-86
2021/07/14 10:43:18;;;;;;;6.30;4.27;;;19.00;99.90;;;;;;5075829;28;20393;-85
2021/07/14 10:45:49;;;;;;;3.87;3.50;;;19.00;99.90;;;;;;5077795;28;20386;-85
2021/07/14 10:48:17;;;;;;;4.17;3.77;;;18.60;99.90;;;;;;5077601;28;20765;-85
2021/07/14 10:50:44;;;;;;;3.70;3.40;;;18.30;99.90;;;;;;5079636;28;20416;-85
2021/07/14 10:53:12;;;;;;;4.00;3.30;;;18.70;99.90;;;;;;5087116;28;20424;-84
2021/07/14 10:55:39;;;;;;;3.80;3.50;;;18.50;99.90;;;;;;5083583;28;20397;-86
2021/07/14 10:58:06;;;;;;;4.67;4.37;;;18.40;99.90;;;;;;5079070;28;20397;-86
2021/07/14 11:00:41;;;;;;;3.63;3.40;;;18.90;99.90;;;;;;5078755;28;20474;-86
2021/07/14 11:03:07;;;;;;;4.13;3.83;;;19.10;99.90;;;;;;5076572;28;20565;-85
2021/07/14 11:05:43;;;;;;;4.10;3.80;;;19.80;99.90;;;;;;5074257;28;20522;-85
2021/07/14 11:08:09;;;;;;;3.60;3.30;;;20.00;99.90;;;;;;5057339;28;20422;-86
2021/07/14 11:10:38;;;;;;;4.00;3.70;;;19.90;99.90;;;;;;5068164;28;20426;-84
2021/07/14 11:13:27;;;;;;;3.80;3.50;;;20.40;99.90;;;;;;5039914;28;20532;-85
2021/07/14 11:15:53;;;;;;;4.03;3.43;;;20.40;99.90;;;;;;5056254;28;20503;-85
2021/07/14 11:18:35;;;;;;;3.27;3.07;;;19.90;99.90;;;;;;5055818;28;20894;-85
2021/07/14 11:21:01;;;;;;;3.30;2.93;;;19.90;99.90;;;;;;5038720;28;20481;-84
2021/07/14 11:23:29;;;;;;;2.67;2.47;;;20.20;99.90;;;;;;5039136;28;20855;-86
2021/07/14 11:25:59;;;;;;;3.00;2.70;;;20.90;99.90;;;;;;5039395;28;20391;-85
2021/07/14 11:28:28;;;;;;;3.17;2.93;;;20.90;99.90;;;;;;5055351;28;20472;-86
2021/07/14 11:30:57;;;;;;;3.03;2.73;;;20.50;99.90;;;;;;5039819;28;20761;-85
2021/07/14 11:33:41;;;;;;;3.13;2.90;;;20.70;99.90;;;;;;5040113;28;20413;-86
2021/07/14 11:36:10;;;;;;;1.97;1.87;;;20.60;99.90;;;;;;5058502;28;20410;-85
2021/07/14 11:38:54;;;;;;;2.37;2.17;;;21.00;99.90;;;;;;5041303;28;20454;-86
2021/07/14 11:41:25;;;;;;;2.80;2.60;;;21.80;99.90;;;;;;5057192;28;20448;-85
2021/07/14 11:43:54;;;;;;;2.33;2.23;;;22.20;99.90;;;;;;5058220;28;20898;-86
2021/07/14 11:46:26;;;;;;;2.23;2.07;;;20.90;99.90;;;;;;5057592;28;20426;-86
2021/07/14 11:49:01;;;;;;;2.17;1.90;;;21.40;99.90;;;;;;5056612;28;20407;-86
2021/07/14 11:51:29;;;;;;;2.43;1.97;;;21.20;99.90;;;;;;5059959;28;20390;-86
2021/07/14 11:53:58;;;;;;;6.30;2.40;;;21.90;99.90;;;;;;5058285;28;20398;-86
2021/07/14 11:56:45;;;;;;;2.27;2.17;;;22.50;99.90;;;;;;5057303;28;20875;-85
2021/07/14 11:59:14;;;;;;;2.30;2.10;;;22.60;99.90;;;;;;5056284;28;20395;-86
2021/07/14 12:01:46;;;;;;;1.77;1.67;;;22.60;99.90;;;;;;5055621;28;20508;-86
2021/07/14 12:04:12;;;;;;;1.90;1.80;;;22.70;99.90;;;;;;5056123;28;20810;-86
2021/07/14 12:06:45;;;;;;;2.23;2.13;;;22.80;99.90;;;;;;5068284;28;20421;-86
2021/07/14 12:09:28;;;;;;;4.33;2.03;;;22.10;99.90;;;;;;5058118;28;20974;-85
2021/07/14 12:11:57;;;;;;;2.30;2.10;;;22.40;99.90;;;;;;5039736;28;20391;-85
2021/07/14 12:14:35;;;;;;;2.30;2.10;;;22.20;99.90;;;;;;5056982;28;20414;-86
2021/07/14 12:17:07;;;;;;;1.80;1.70;;;22.60;99.90;;;;;;5057740;28;20480;-85
2021/07/14 12:19:37;;;;;;;1.80;1.70;;;22.90;99.90;;;;;;5057712;28;20414;-85
2021/07/14 12:22:09;;;;;;;2.27;2.17;;;23.40;99.90;;;;;;5057760;28;20390;-84
2021/07/14 12:24:41;;;;;;;2.00;1.90;;;23.70;99.90;;;;;;5058194;28;20394;-86
2021/07/14 12:27:13;;;;;;;1.97;1.87;;;24.10;99.90;;;;;;5068837;28;20421;-85
2021/07/14 12:29:40;;;;;;;2.23;2.00;;;24.60;99.90;;;;;;5075861;28;20446;-84
2021/07/14 12:32:07;;;;;;;2.17;2.07;;;24.80;99.90;;;;;;5077173;28;20408;-86
2021/07/14 12:34:35;;;;;;;2.10;2.00;;;24.40;99.90;;;;;;5076833;28;20866;-85
2021/07/14 12:37:04;;;;;;;2.17;1.97;;;24.40;99.90;;;;;;5079374;28;20385;-85
2021/07/14 12:39:35;;;;;;;2.50;2.30;;;24.10;99.90;;;;;;5076495;28;20476;-85
2021/07/14 12:42:06;;;;;;;1.70;1.60;;;23.70;99.90;;;;;;5077312;28;20397;-86
2021/07/14 12:44:32;;;;;;;2.30;2.20;;;23.30;99.90;;;;;;5076928;28;20408;-83
2021/07/14 12:47:18;;;;;;;2.03;1.83;;;22.10;99.90;;;;;;5070923;28;20428;-86
2021/07/14 12:49:46;;;;;;;2.37;2.17;;;22.50;99.90;;;;;;5056455;28;20394;-85
2021/07/14 12:52:16;;;;;;;2.50;2.30;;;23.30;99.90;;;;;;5056992;28;20398;-85
2021/07/14 12:54:45;;;;;;;3.10;2.10;;;22.80;99.90;;;;;;5057200;28;20467;-84
2021/07/14 12:57:28;;;;;;;1.90;1.80;;;23.90;99.90;;;;;;5055110;28;20394;-84
2021/07/14 12:59:59;;;;;;;1.93;1.80;;;24.40;99.90;;;;;;5056385;28;20433;-86
2021/07/14 13:02:35;;;;;;;1.90;1.80;;;24.50;99.90;;;;;;5055551;28;20414;-85
2021/07/14 13:05:01;;;;;;;1.97;1.73;;;24.70;99.90;;;;;;5055979;28;20469;-85